createdAt,value
2023-05-22T08:02:02.301Z,52.68
2023-05-22T08:04:30.209Z,51.98
2023-05-22T08:06:57.328Z,51.70
2023-05-22T08:09:24.490Z,51.55
2023-05-22T08:11:51.555Z,51.83
2023-05-22T08:14:18.678Z,51.40
2023-05-22T08:16:46.092Z,51.34
2023-05-22T08:19:14.085Z,51.76
2023-05-22T08:21:41.142Z,51.83
2023-05-22T08:24:08.512Z,51.50
2023-05-22T08:26:36.449Z,51.38
2023-05-22T08:29:03.469Z,51.30
2023-05-22T08:31:31.100Z,51.34
2023-05-22T08:34:02.783Z,50.74
2023-05-22T08:36:34.389Z,51.03
2023-05-22T08:39:02.110Z,51.28
2023-05-22T08:41:30.287Z,50.35
2023-05-22T08:43:58.013Z,50.36
2023-05-22T08:46:26.689Z,49.85
2023-05-22T08:48:56.823Z,49.79
2023-05-22T08:51:32.909Z,50.45
2023-05-22T08:54:01.310Z,49.64
2023-05-22T08:56:30.225Z,50.10
2023-05-22T08:58:58.429Z,49.38
2023-05-22T09:01:26.122Z,48.92
2023-05-22T09:03:54.101Z,48.76
2023-05-22T09:06:21.334Z,48.84
2023-05-22T09:08:50.073Z,48.88
2023-05-22T09:11:18.480Z,48.86
2023-05-22T09:13:45.909Z,48.50
2023-05-22T09:16:13.423Z,48.86
2023-05-22T09:18:42.321Z,48.17
2023-05-22T09:21:28.982Z,48.38
2023-05-22T09:24:01.463Z,48.10
2023-05-22T09:26:33.045Z,48.14
2023-05-22T09:29:01.179Z,48.00
2023-05-22T09:31:31.903Z,47.33
2023-05-22T09:33:59.936Z,47.42
2023-05-22T09:36:33.872Z,47.22
2023-05-22T09:39:04.066Z,46.71
2023-05-22T09:41:35.360Z,46.79
2023-05-22T09:44:06.937Z,47.16
2023-05-22T09:46:40.343Z,46.73
2023-05-22T09:49:07.804Z,46.78
2023-05-22T09:51:36.402Z,46.31
2023-05-22T09:54:06.884Z,46.19
2023-05-22T09:56:40.424Z,45.36
2023-05-22T09:59:09.978Z,45.57
2023-05-22T10:01:59.000Z,45.13
2023-05-22T10:04:49.823Z,44.88
2023-05-22T10:07:43.023Z,44.74
2023-05-22T10:10:32.646Z,44.22
2023-05-22T10:13:26.265Z,43.40
2023-05-22T10:16:14.276Z,42.97
2023-05-22T10:19:02.905Z,42.86
2023-05-22T10:21:50.599Z,42.73
2023-05-22T10:24:37.815Z,42.06
2023-05-22T10:27:24.986Z,42.12
2023-05-22T10:30:18.493Z,41.82
2023-05-22T10:33:42.706Z,41.80
2023-05-22T10:36:54.454Z,40.86
2023-05-22T10:40:00.955Z,41.61
2023-05-22T10:42:52.359Z,40.35
2023-05-22T10:45:39.525Z,40.59
2023-05-22T10:48:27.638Z,40.45
2023-05-22T10:51:14.684Z,40.23
2023-05-22T10:54:04.446Z,39.30
2023-05-22T10:56:55.600Z,40.03
2023-05-22T10:59:54.701Z,39.92
2023-05-22T11:02:45.694Z,38.62
2023-05-22T11:05:38.649Z,39.37
2023-05-22T11:08:53.800Z,38.58
2023-05-22T11:11:45.512Z,38.12
2023-05-22T11:14:33.476Z,37.72
2023-05-22T11:17:21.757Z,37.74
2023-05-22T11:20:25.241Z,37.59
2023-05-22T11:23:20.879Z,37.44
2023-05-22T11:26:07.844Z,36.62
2023-05-22T11:28:54.870Z,37.07
2023-05-22T11:31:41.935Z,37.16
2023-05-22T11:34:29.164Z,36.15
2023-05-22T11:37:19.935Z,36.02
2023-05-22T11:40:17.848Z,35.88
2023-05-22T11:43:05.219Z,35.86
2023-05-22T11:45:56.888Z,35.50
2023-05-22T11:48:44.104Z,35.81
2023-05-22T11:51:31.360Z,35.29
2023-05-22T11:54:18.463Z,35.11
2023-05-22T11:57:05.926Z,35.30
2023-05-22T11:59:53.135Z,35.08
2023-05-22T12:02:40.659Z,35.24
2023-05-22T12:05:28.010Z,34.89
2023-05-22T12:08:15.375Z,34.67
2023-05-22T12:11:11.704Z,34.82
2023-05-22T12:13:59.364Z,34.73
2023-05-22T12:16:46.498Z,34.66
2023-05-22T12:19:34.107Z,33.95
2023-05-22T12:22:22.556Z,33.77
2023-05-22T12:25:12.508Z,33.92
2023-05-22T12:27:59.519Z,34.38
2023-05-22T12:30:46.806Z,33.83
2023-05-22T12:33:37.462Z,33.86
2023-05-22T12:36:28.566Z,33.53
2023-05-22T12:39:17.530Z,33.31
2023-05-22T12:42:05.919Z,34.00
2023-05-22T12:44:52.848Z,33.41
2023-05-22T12:47:40.208Z,33.92
2023-05-22T12:50:28.116Z,33.67
2023-05-22T12:53:15.343Z,33.16
2023-05-22T12:56:03.384Z,33.07
2023-05-22T12:58:50.498Z,32.91
2023-05-22T13:01:37.737Z,32.64
2023-05-22T13:04:24.864Z,32.71
2023-05-22T13:07:12.040Z,32.86
2023-05-22T13:09:59.249Z,32.69
2023-05-22T13:12:46.295Z,33.13
2023-05-22T13:15:36.392Z,33.06
2023-05-22T13:18:24.192Z,32.68
2023-05-22T13:21:11.358Z,32.71
2023-05-22T13:23:58.609Z,33.05
2023-05-22T13:26:45.693Z,33.26
2023-05-22T13:29:32.710Z,34.05
2023-05-22T13:32:20.289Z,34.21
2023-05-22T13:35:07.338Z,33.97
2023-05-22T13:37:54.516Z,34.18
2023-05-22T13:40:41.683Z,34.96
2023-05-22T13:43:28.795Z,34.61
2023-05-22T13:46:15.810Z,34.74
2023-05-22T13:49:03.078Z,35.29
2023-05-22T13:51:50.042Z,34.53
2023-05-22T13:54:37.289Z,35.10
2023-05-22T13:57:24.339Z,34.95
2023-05-22T14:00:11.624Z,35.08
2023-05-22T14:02:58.627Z,35.42
2023-05-22T14:05:46.138Z,35.29
2023-05-22T14:08:33.213Z,35.50
2023-05-22T14:11:20.624Z,35.79
2023-05-22T14:14:07.721Z,35.81
2023-05-22T14:16:54.775Z,36.06
2023-05-22T14:19:41.865Z,36.46
2023-05-22T14:22:29.084Z,36.60
2023-05-22T14:25:16.321Z,36.62
2023-05-22T14:28:03.374Z,36.80
2023-05-22T14:30:50.655Z,37.27
2023-05-22T14:33:37.579Z,36.78
2023-05-22T14:36:25.100Z,37.16
2023-05-22T14:39:15.517Z,37.27
2023-05-22T14:42:02.884Z,37.41
2023-05-22T14:44:50.003Z,37.77
2023-05-22T14:47:37.098Z,37.89
2023-05-22T14:50:24.483Z,37.89
2023-05-22T14:53:11.547Z,37.84
2023-05-22T14:55:58.706Z,37.78
2023-05-22T14:58:45.819Z,37.94
2023-05-22T15:01:32.984Z,37.79
2023-05-22T15:04:20.056Z,37.69
2023-05-22T15:07:07.186Z,37.97
2023-05-22T15:09:54.366Z,37.80
2023-05-22T15:12:41.796Z,37.98
2023-05-22T15:15:29.380Z,38.41
2023-05-22T15:18:16.601Z,38.50
2023-05-22T15:21:03.808Z,38.84
2023-05-22T15:23:51.032Z,37.85
2023-05-22T15:26:38.186Z,38.27
2023-05-22T15:29:25.185Z,38.45
2023-05-22T15:32:12.300Z,39.00
2023-05-22T15:34:59.526Z,37.90
2023-05-22T15:37:27.660Z,38.07
2023-05-22T15:39:55.889Z,37.71
2023-05-22T15:42:22.875Z,36.67
2023-05-22T15:44:50.031Z,37.27
2023-05-22T15:47:17.046Z,37.00
2023-05-22T15:49:44.090Z,36.80
2023-05-22T15:52:31.218Z,37.08
2023-05-22T15:55:18.441Z,36.39
2023-05-22T15:58:05.519Z,36.38
2023-05-22T16:00:52.602Z,36.82
2023-05-22T16:03:39.906Z,36.37
2023-05-22T16:06:27.180Z,36.29
2023-05-22T16:09:14.696Z,36.22
2023-05-22T16:12:01.918Z,35.66
2023-05-22T16:14:49.618Z,35.58
2023-05-22T16:17:36.827Z,35.74
2023-05-22T16:20:24.456Z,35.71
2023-05-22T16:23:11.818Z,35.89
2023-05-22T16:25:58.849Z,35.96
2023-05-22T16:28:45.816Z,36.25
2023-05-22T16:31:32.907Z,35.59
2023-05-22T16:34:20.762Z,36.56
2023-05-22T16:37:07.852Z,36.30
2023-05-22T16:39:54.873Z,36.50
2023-05-22T16:42:41.928Z,36.94
2023-05-22T16:45:29.134Z,36.23
2023-05-22T16:48:16.274Z,36.52
2023-05-22T16:51:03.681Z,37.00
2023-05-22T16:53:50.868Z,36.92
2023-05-22T16:56:37.863Z,36.40
2023-05-22T16:59:25.139Z,36.51
2023-05-22T17:02:12.413Z,36.96
2023-05-22T17:04:59.517Z,36.93
2023-05-22T17:07:46.739Z,37.53
2023-05-22T17:10:34.198Z,37.67
2023-05-22T17:13:21.260Z,37.38
2023-05-22T17:16:12.009Z,37.43
2023-05-22T17:18:59.126Z,37.66
2023-05-22T17:21:46.302Z,37.65
2023-05-22T17:24:33.394Z,37.45
2023-05-22T17:27:31.680Z,37.43
2023-05-22T17:30:22.590Z,37.35
2023-05-22T17:33:10.098Z,37.64
2023-05-22T17:35:57.226Z,38.10
2023-05-22T17:38:44.356Z,37.45
2023-05-22T17:41:31.354Z,37.61
2023-05-22T17:44:18.648Z,36.23
2023-05-22T17:47:05.759Z,36.95
2023-05-22T17:49:52.893Z,36.46
2023-05-22T17:52:39.973Z,36.41
2023-05-22T17:55:27.461Z,37.15
2023-05-22T17:58:14.942Z,36.98
2023-05-22T18:01:03.096Z,36.76
2023-05-22T18:03:50.910Z,36.69
2023-05-22T18:06:37.977Z,37.82
2023-05-22T18:09:25.105Z,37.61
2023-05-22T18:12:24.418Z,37.60
2023-05-22T18:15:18.721Z,38.08
2023-05-22T18:18:05.911Z,38.19
2023-05-22T18:20:53.056Z,38.66
2023-05-22T18:23:40.238Z,38.93
2023-05-22T18:26:27.489Z,38.99
2023-05-22T18:29:14.609Z,39.36
2023-05-22T18:32:01.623Z,40.25
2023-05-22T18:34:48.711Z,40.19
2023-05-22T18:37:36.004Z,40.79
2023-05-22T18:40:23.071Z,40.94
2023-05-22T18:43:10.065Z,41.12
2023-05-22T18:48:44.417Z,40.97
2023-05-22T18:51:31.350Z,41.08
2023-05-22T18:54:18.611Z,40.77
2023-05-22T18:57:05.892Z,40.83
2023-05-22T18:59:52.997Z,41.30
2023-05-22T19:02:40.143Z,41.69
2023-05-22T19:05:27.485Z,42.09
2023-05-22T19:08:14.606Z,42.85
2023-05-22T19:11:01.606Z,42.90
2023-05-22T19:13:49.037Z,43.39
2023-05-22T19:16:36.205Z,44.12
2023-05-22T19:19:23.757Z,44.41
2023-05-22T19:22:10.737Z,44.95
2023-05-22T19:24:57.831Z,45.30
2023-05-22T19:27:45.448Z,45.59
2023-05-22T19:30:32.651Z,45.79
2023-05-22T19:33:19.728Z,45.55
2023-05-22T19:36:06.965Z,45.65
2023-05-22T19:38:53.997Z,45.54
2023-05-22T19:41:41.135Z,45.82
2023-05-22T19:44:28.145Z,46.08
2023-05-22T19:47:15.138Z,46.57
2023-05-22T19:50:02.182Z,46.60
2023-05-22T19:52:49.353Z,46.47
2023-05-22T19:55:36.493Z,46.94
2023-05-22T19:58:23.433Z,46.67
2023-05-22T20:01:10.483Z,47.42
2023-05-22T20:03:57.602Z,47.65
2023-05-22T20:06:44.739Z,47.91
2023-05-22T20:09:31.745Z,48.44
2023-05-22T20:12:18.888Z,48.40
2023-05-22T20:15:06.318Z,48.66
2023-05-22T20:17:54.351Z,48.51
2023-05-22T20:20:42.088Z,49.23
2023-05-22T20:23:29.089Z,49.47
2023-05-22T20:26:16.165Z,49.32
2023-05-22T20:29:03.334Z,49.93
2023-05-22T20:31:50.504Z,50.17
2023-05-22T20:34:37.488Z,50.02
2023-05-22T20:37:24.946Z,49.69
2023-05-22T20:40:12.046Z,50.32
2023-05-22T20:42:59.634Z,49.94
2023-05-22T20:45:46.697Z,50.14
2023-05-22T20:48:33.836Z,51.11
2023-05-22T20:51:20.859Z,50.81
2023-05-22T20:54:08.637Z,50.82
2023-05-22T20:56:55.710Z,50.97
2023-05-22T20:59:42.732Z,51.60
2023-05-22T21:02:29.842Z,51.79
2023-05-22T21:05:16.891Z,52.24
2023-05-22T21:08:03.914Z,52.10
2023-05-22T21:10:50.950Z,52.03
2023-05-22T21:13:39.498Z,52.35
2023-05-22T21:16:27.090Z,52.63
2023-05-22T21:19:14.410Z,52.38
2023-05-22T21:22:01.563Z,53.15
2023-05-22T21:24:48.614Z,53.22
2023-05-22T21:27:35.742Z,53.32
2023-05-22T21:30:22.792Z,53.28
2023-05-22T21:33:09.837Z,53.34
2023-05-22T21:35:56.814Z,53.80
2023-05-22T21:38:43.887Z,54.09
2023-05-22T21:41:31.035Z,53.95
2023-05-22T21:44:18.402Z,54.24
2023-05-22T21:47:05.360Z,54.34
2023-05-22T21:49:52.407Z,54.25
2023-05-22T21:52:39.588Z,54.77
2023-05-22T21:55:27.751Z,54.84
2023-05-22T21:58:15.727Z,55.05
2023-05-22T22:01:02.832Z,55.38
2023-05-22T22:03:49.845Z,55.60
2023-05-22T22:06:36.948Z,56.18
2023-05-22T22:09:24.191Z,55.69
2023-05-22T22:12:11.278Z,56.11
2023-05-22T22:14:58.319Z,56.60
2023-05-22T22:17:45.494Z,56.66
2023-05-22T22:20:43.470Z,57.18
2023-05-22T22:23:32.595Z,56.69
2023-05-22T22:26:19.550Z,57.55
2023-05-22T22:29:06.748Z,57.53
2023-05-22T22:31:54.354Z,57.51
2023-05-22T22:34:41.470Z,57.62
2023-05-22T22:37:28.435Z,57.53
2023-05-22T22:40:15.555Z,57.83
2023-05-22T22:43:02.534Z,58.04
2023-05-22T22:45:49.670Z,57.72
2023-05-22T22:48:36.850Z,57.72
2023-05-22T22:51:24.023Z,58.05
2023-05-22T22:54:10.992Z,57.93
2023-05-22T22:56:58.158Z,58.47
2023-05-22T22:59:45.257Z,58.63
2023-05-22T23:02:32.454Z,57.74
2023-05-22T23:05:19.527Z,58.53
2023-05-22T23:08:07.675Z,57.89
2023-05-22T23:10:54.676Z,58.55
2023-05-22T23:13:41.851Z,58.56
2023-05-22T23:16:29.327Z,58.05
2023-05-22T23:19:16.567Z,58.19
2023-05-22T23:22:04.708Z,59.53
2023-05-22T23:24:52.053Z,59.00
2023-05-22T23:27:39.325Z,59.36
2023-05-22T23:30:28.266Z,59.40
2023-05-22T23:33:15.354Z,59.12
2023-05-22T23:36:02.524Z,58.89
2023-05-22T23:38:49.485Z,59.81
2023-05-22T23:41:40.209Z,59.69
2023-05-22T23:44:27.486Z,58.90
2023-05-22T23:47:14.767Z,59.88
2023-05-22T23:50:01.879Z,59.29
2023-05-22T23:52:49.169Z,60.00
2023-05-22T23:55:36.235Z,59.94
2023-05-22T23:58:23.587Z,60.08
